createdAt,value
2023-02-19T00:02:26.128Z,230.93
2023-02-19T00:04:53.551Z,223.73
2023-02-19T00:07:21.237Z,219.23
2023-02-19T00:09:48.652Z,230.43
2023-02-19T00:12:16.040Z,212.70
2023-02-19T00:14:43.498Z,216.05
2023-02-19T00:17:10.906Z,214.77
2023-02-19T00:19:38.359Z,215.40
2023-02-19T00:22:05.790Z,218.32
2023-02-19T00:24:33.150Z,229.18
2023-02-19T00:27:00.548Z,204.10
2023-02-19T00:29:27.940Z,205.43
2023-02-19T00:31:55.504Z,209.52
2023-02-19T00:34:22.975Z,193.75
2023-02-19T00:36:50.366Z,210.63
2023-02-19T00:39:18.661Z,194.27
2023-02-19T00:41:46.524Z,205.45
2023-02-19T00:44:15.239Z,209.52
2023-02-19T00:46:47.470Z,209.15
2023-02-19T00:51:43.962Z,205.68
2023-02-19T00:54:12.363Z,208.27
2023-02-19T00:56:39.867Z,200.40
2023-02-19T00:59:07.438Z,186.93
2023-02-19T01:01:35.075Z,184.38
2023-02-19T01:04:04.261Z,188.80
2023-02-19T01:06:33.036Z,180.80
2023-02-19T01:09:00.503Z,186.77
2023-02-19T01:11:27.985Z,192.48
2023-02-19T01:13:59.060Z,189.48
2023-02-19T01:16:27.610Z,188.88
2023-02-19T01:18:56.414Z,195.02
2023-02-19T01:21:25.833Z,206.40
2023-02-19T01:23:53.341Z,192.23
2023-02-19T01:26:23.259Z,187.40
2023-02-19T01:28:50.942Z,193.13
2023-02-19T01:31:21.247Z,199.55
2023-02-19T01:33:57.771Z,202.43
2023-02-19T01:36:26.286Z,205.27
2023-02-19T01:38:53.877Z,199.65
2023-02-19T01:41:25.418Z,209.85
2023-02-19T01:44:08.865Z,221.18
2023-02-19T01:46:38.513Z,215.10
2023-02-19T01:49:23.527Z,217.45
2023-02-19T01:52:26.887Z,221.15
2023-02-19T01:54:56.555Z,236.25
2023-02-19T01:57:27.976Z,235.20
2023-02-19T02:00:03.209Z,216.73
2023-02-19T02:02:42.226Z,232.43
2023-02-19T02:05:21.882Z,244.43
2023-02-19T02:08:07.732Z,233.07
2023-02-19T02:10:35.255Z,236.20
2023-02-19T02:13:03.323Z,217.70
2023-02-19T02:15:48.644Z,218.55
2023-02-19T02:18:26.430Z,222.63
2023-02-19T02:21:19.652Z,221.70
2023-02-19T02:24:07.250Z,245.55
2023-02-19T02:27:05.133Z,203.40
2023-02-19T02:30:06.991Z,192.27
2023-02-19T02:33:14.062Z,178.63
2023-02-19T02:36:16.637Z,237.10
2023-02-19T02:41:15.108Z,195.18
2023-02-19T02:43:42.569Z,180.90
2023-02-19T02:46:12.633Z,216.68
2023-02-19T02:49:18.010Z,204.05
2023-02-19T02:51:51.094Z,192.07
2023-02-19T02:54:52.233Z,202.95
2023-02-19T02:57:22.074Z,230.85
2023-02-19T02:59:54.009Z,219.57
2023-02-19T03:02:26.218Z,213.70
2023-02-19T03:05:33.646Z,212.13
2023-02-19T03:08:09.936Z,204.95
2023-02-19T03:10:46.012Z,206.57
2023-02-19T03:13:40.313Z,207.32
2023-02-19T03:16:41.748Z,196.43
2023-02-19T03:19:20.036Z,213.00
2023-02-19T03:22:09.988Z,201.07
2023-02-19T03:25:02.929Z,196.80
2023-02-19T03:27:35.576Z,208.88
2023-02-19T03:30:09.404Z,201.38
2023-02-19T03:32:53.506Z,201.40
2023-02-19T03:35:28.874Z,200.23
2023-02-19T03:38:05.232Z,198.68
2023-02-19T03:40:44.446Z,209.52
2023-02-19T03:43:42.466Z,201.57
2023-02-19T03:46:34.096Z,196.40
2023-02-19T03:49:23.623Z,205.82
2023-02-19T03:52:01.372Z,195.60
2023-02-19T03:54:34.597Z,184.85
2023-02-19T03:57:23.108Z,188.57
2023-02-19T04:00:03.436Z,201.32
2023-02-19T04:03:04.412Z,211.35
2023-02-19T04:05:37.460Z,194.70
2023-02-19T04:08:15.604Z,203.35
2023-02-19T04:10:49.440Z,201.25
2023-02-19T04:13:38.805Z,219.18
2023-02-19T04:16:16.321Z,208.00
2023-02-19T04:18:46.759Z,210.75
2023-02-19T04:21:15.620Z,238.75
2023-02-19T04:23:45.544Z,243.38
2023-02-19T04:26:15.100Z,222.65
2023-02-19T04:28:44.196Z,243.88
2023-02-19T04:31:12.291Z,242.75
2023-02-19T04:33:40.002Z,261.20
2023-02-19T04:36:10.528Z,252.02
2023-02-19T04:38:38.349Z,274.50
2023-02-19T04:41:05.851Z,296.20
2023-02-19T04:43:33.245Z,312.80
2023-02-19T04:46:01.983Z,285.35
2023-02-19T04:48:29.510Z,312.73
2023-02-19T04:50:57.162Z,288.60
2023-02-19T04:53:24.709Z,307.58
2023-02-19T04:55:53.462Z,261.80
2023-02-19T04:58:21.526Z,275.00
2023-02-19T05:00:52.945Z,265.27
2023-02-19T05:03:20.422Z,280.00
2023-02-19T05:05:47.848Z,259.13
2023-02-19T05:08:15.267Z,272.65
2023-02-19T05:10:42.738Z,272.17
2023-02-19T05:13:10.212Z,305.52
2023-02-19T05:15:37.625Z,295.85
2023-02-19T05:18:05.255Z,335.95
2023-02-19T05:20:32.743Z,297.23
2023-02-19T05:23:00.101Z,288.67
2023-02-19T05:25:27.480Z,268.27
2023-02-19T05:28:14.813Z,255.75
2023-02-19T05:30:42.266Z,306.13
2023-02-19T05:33:09.921Z,264.35
2023-02-19T05:36:07.860Z,276.90
2023-02-19T05:38:36.029Z,292.58
2023-02-19T05:41:19.617Z,294.33
2023-02-19T05:43:48.743Z,244.82
2023-02-19T05:46:19.742Z,271.17
2023-02-19T05:48:49.006Z,259.95
2023-02-19T05:51:20.559Z,231.30
2023-02-19T05:53:48.552Z,240.88
2023-02-19T05:56:37.854Z,248.90
2023-02-19T05:59:20.757Z,244.63
2023-02-19T06:01:50.094Z,224.55
2023-02-19T06:04:19.981Z,225.82
2023-02-19T06:06:48.292Z,237.88
2023-02-19T06:09:15.676Z,262.77
2023-02-19T06:11:43.634Z,244.45
2023-02-19T06:14:13.959Z,236.15
2023-02-19T06:16:41.902Z,234.98
2023-02-19T06:19:09.854Z,217.45
2023-02-19T06:21:37.359Z,221.82
2023-02-19T06:24:06.571Z,209.82
2023-02-19T06:26:34.157Z,208.30
2023-02-19T06:29:01.612Z,213.65
2023-02-19T06:31:29.318Z,204.10
2023-02-19T06:33:56.736Z,211.43
2023-02-19T06:36:24.366Z,201.02
2023-02-19T06:38:51.908Z,194.98
2023-02-19T06:41:19.517Z,200.60
2023-02-19T06:43:47.160Z,202.70
2023-02-19T06:46:14.794Z,214.32
2023-02-19T06:48:43.931Z,209.20
2023-02-19T06:51:18.871Z,207.38
2023-02-19T06:53:46.632Z,213.48
2023-02-19T06:56:30.847Z,199.05
2023-02-19T06:59:00.738Z,200.10
2023-02-19T07:01:33.220Z,198.00
2023-02-19T07:04:01.070Z,194.85
2023-02-19T07:06:28.983Z,173.65
2023-02-19T07:08:58.048Z,178.45
2023-02-19T07:11:26.636Z,159.45
2023-02-19T07:13:58.087Z,164.00
2023-02-19T07:16:26.225Z,163.82
2023-02-19T07:18:56.948Z,152.85
2023-02-19T07:21:24.736Z,153.90
2023-02-19T07:23:52.829Z,158.70
2023-02-19T07:26:21.293Z,158.88
2023-02-19T07:28:50.590Z,154.70
2023-02-19T07:31:19.671Z,162.48
2023-02-19T07:33:47.664Z,172.38
2023-02-19T07:36:16.885Z,155.68
2023-02-19T07:38:45.110Z,151.65
2023-02-19T07:41:13.114Z,150.88
2023-02-19T07:43:41.080Z,155.60
2023-02-19T07:46:14.155Z,167.82
2023-02-19T07:48:42.839Z,160.95
2023-02-19T07:51:19.182Z,164.68
2023-02-19T07:53:47.683Z,208.80
2023-02-19T07:56:15.430Z,198.95
2023-02-19T07:58:43.113Z,192.75
2023-02-19T08:01:39.897Z,189.80
2023-02-19T08:04:07.418Z,217.13
2023-02-19T08:06:34.878Z,216.23
2023-02-19T08:09:03.403Z,175.60
2023-02-19T08:11:49.594Z,182.75
2023-02-19T08:14:17.006Z,217.35
2023-02-19T08:16:51.609Z,186.95
2023-02-19T08:19:19.522Z,183.73
2023-02-19T08:21:46.949Z,169.52
2023-02-19T08:24:14.345Z,173.02
2023-02-19T08:26:41.790Z,182.30
2023-02-19T08:29:09.182Z,166.25
2023-02-19T08:31:36.806Z,157.88
2023-02-19T08:34:04.472Z,165.02
2023-02-19T08:36:31.849Z,171.10
2023-02-19T08:38:59.261Z,176.60
2023-02-19T08:41:27.031Z,173.35
2023-02-19T08:43:54.490Z,169.35
2023-02-19T08:46:22.796Z,187.80
2023-02-19T08:48:50.339Z,164.43
2023-02-19T08:51:17.816Z,167.27
2023-02-19T08:53:45.962Z,174.75
2023-02-19T08:56:15.934Z,173.30
2023-02-19T08:58:43.863Z,165.25
2023-02-19T09:01:13.769Z,178.05
2023-02-19T09:03:42.570Z,174.43
2023-02-19T09:06:20.492Z,159.63
2023-02-19T09:08:47.888Z,164.32
2023-02-19T09:11:15.575Z,162.50
2023-02-19T09:13:44.121Z,163.52
2023-02-19T09:16:12.132Z,154.35
2023-02-19T09:18:40.039Z,190.88
2023-02-19T09:21:07.680Z,159.50
2023-02-19T09:23:36.061Z,168.73
2023-02-19T09:26:07.509Z,168.02
2023-02-19T09:28:35.252Z,168.63
2023-02-19T09:31:06.721Z,169.32
2023-02-19T09:33:34.228Z,180.00
2023-02-19T09:36:01.753Z,160.60
2023-02-19T09:38:30.911Z,168.35
2023-02-19T09:41:00.136Z,173.38
2023-02-19T09:43:29.962Z,162.23
2023-02-19T09:46:38.569Z,165.82
2023-02-19T09:49:17.703Z,174.70
2023-02-19T09:51:50.861Z,169.65
2023-02-19T09:54:23.896Z,183.88
2023-02-19T09:56:53.142Z,170.43
2023-02-19T09:59:27.102Z,176.55
2023-02-19T10:02:13.288Z,185.70
2023-02-19T10:04:43.466Z,190.35
2023-02-19T10:07:17.066Z,185.38
2023-02-19T10:10:02.693Z,200.25
2023-02-19T10:12:32.309Z,190.95
2023-02-19T10:15:15.474Z,200.70
2023-02-19T10:17:42.873Z,194.60
2023-02-19T10:20:19.560Z,200.60
2023-02-19T10:22:47.115Z,213.32
2023-02-19T10:25:16.467Z,200.68
2023-02-19T10:27:44.471Z,211.15
2023-02-19T10:30:23.986Z,208.73
2023-02-19T10:33:13.812Z,194.63
2023-02-19T10:36:18.725Z,185.43
2023-02-19T10:38:47.598Z,189.63
2023-02-19T10:41:17.977Z,210.18
2023-02-19T10:44:06.952Z,207.15
2023-02-19T10:46:45.822Z,190.95
2023-02-19T10:49:23.799Z,184.07
2023-02-19T10:51:53.886Z,210.13
2023-02-19T10:54:28.854Z,194.30
2023-02-19T10:57:15.607Z,187.90
2023-02-19T10:59:51.128Z,202.15
2023-02-19T11:02:20.504Z,204.15
2023-02-19T11:05:02.842Z,195.75
2023-02-19T11:07:30.910Z,184.80
2023-02-19T11:09:59.799Z,199.98
2023-02-19T11:12:35.008Z,193.52
2023-02-19T11:15:25.487Z,192.02
2023-02-19T11:18:22.578Z,204.40
2023-02-19T11:21:24.905Z,204.75
2023-02-19T11:23:52.387Z,200.02
2023-02-19T11:26:22.931Z,197.10
2023-02-19T11:29:01.306Z,199.43
2023-02-19T11:31:36.202Z,195.95
2023-02-19T11:34:29.873Z,216.10
2023-02-19T11:37:13.356Z,198.00
2023-02-19T11:39:47.400Z,198.20
2023-02-19T11:42:29.228Z,202.25
2023-02-19T11:45:09.138Z,210.52
2023-02-19T11:47:42.628Z,196.07
2023-02-19T11:50:15.821Z,190.32
2023-02-19T11:52:55.743Z,183.63
2023-02-19T11:55:53.199Z,190.10
2023-02-19T11:58:39.374Z,181.15
2023-02-19T12:01:38.582Z,174.40
2023-02-19T12:04:21.214Z,199.18
2023-02-19T12:07:06.480Z,174.52
2023-02-19T12:09:39.578Z,179.30
2023-02-19T12:12:09.959Z,186.10
2023-02-19T12:15:09.324Z,176.65
2023-02-19T12:18:13.772Z,192.45
2023-02-19T12:21:14.938Z,176.93
2023-02-19T12:23:54.481Z,170.45
2023-02-19T12:26:27.727Z,182.48
2023-02-19T12:29:22.512Z,176.45
2023-02-19T12:32:09.860Z,171.82
2023-02-19T12:34:58.762Z,167.88
2023-02-19T12:37:48.694Z,159.82
2023-02-19T12:40:42.528Z,162.27
2023-02-19T12:43:21.595Z,164.95
2023-02-19T12:45:54.902Z,176.52
2023-02-19T12:48:47.467Z,160.52
2023-02-19T12:53:59.913Z,160.20
2023-02-19T12:56:52.425Z,158.43
2023-02-19T12:59:43.492Z,157.57
2023-02-19T13:02:22.478Z,147.73
2023-02-19T13:05:23.973Z,144.07
2023-02-19T13:07:54.162Z,146.60
2023-02-19T13:10:58.338Z,153.88
2023-02-19T13:13:38.439Z,145.52
2023-02-19T13:16:18.621Z,146.60
2023-02-19T13:18:52.090Z,150.73
2023-02-19T13:21:41.007Z,142.07
2023-02-19T13:24:13.990Z,147.18
2023-02-19T13:26:59.408Z,148.30
2023-02-19T13:30:04.207Z,158.05
2023-02-19T13:32:49.283Z,153.52
2023-02-19T13:35:45.170Z,150.43
2023-02-19T13:38:13.765Z,148.50
2023-02-19T13:40:43.412Z,141.73
2023-02-19T13:43:26.254Z,146.88
2023-02-19T13:46:06.597Z,152.55
2023-02-19T13:48:36.825Z,144.90
2023-02-19T13:51:16.175Z,137.63
2023-02-19T13:53:44.748Z,142.95
2023-02-19T13:56:31.384Z,139.73
2023-02-19T13:59:12.353Z,138.55
2023-02-19T14:01:51.909Z,147.55
2023-02-19T14:04:43.872Z,145.52
2023-02-19T14:07:11.277Z,135.23
2023-02-19T14:09:41.479Z,133.98
2023-02-19T14:12:16.110Z,135.77
2023-02-19T14:14:44.570Z,148.18
2023-02-19T14:17:41.872Z,131.73
2023-02-19T14:20:09.196Z,131.48
2023-02-19T14:22:57.651Z,135.43
2023-02-19T14:25:30.496Z,128.82
2023-02-19T14:28:03.622Z,132.88
2023-02-19T14:30:34.364Z,136.20
2023-02-19T14:33:10.562Z,131.38
2023-02-19T14:35:42.643Z,137.20
2023-02-19T14:38:30.271Z,139.13
2023-02-19T14:40:58.361Z,141.60
2023-02-19T14:43:26.925Z,144.80
2023-02-19T14:45:59.063Z,131.95
2023-02-19T14:48:47.708Z,131.93
2023-02-19T14:51:38.281Z,133.90
2023-02-19T14:54:29.288Z,150.07
2023-02-19T14:56:58.364Z,143.32
2023-02-19T14:59:30.399Z,144.15
2023-02-19T15:02:03.700Z,137.80
2023-02-19T15:04:36.827Z,149.38
2023-02-19T15:07:08.551Z,155.10
2023-02-19T15:09:47.358Z,144.95
2023-02-19T15:12:26.872Z,142.20
2023-02-19T15:14:57.069Z,139.20
2023-02-19T15:17:30.705Z,139.48
2023-02-19T15:20:05.333Z,140.70
2023-02-19T15:22:32.999Z,137.13
2023-02-19T15:25:02.634Z,139.48
2023-02-19T15:27:30.112Z,138.40
2023-02-19T15:29:57.456Z,136.27
2023-02-19T15:32:27.481Z,139.10
2023-02-19T15:35:03.274Z,144.80
2023-02-19T15:37:33.792Z,164.75
2023-02-19T15:40:07.335Z,147.55
2023-02-19T15:42:37.170Z,146.90
2023-02-19T15:45:18.164Z,152.05
2023-02-19T15:47:55.422Z,144.40
2023-02-19T15:50:34.139Z,157.88
2023-02-19T15:53:14.990Z,157.85
2023-02-19T15:55:54.102Z,148.52
2023-02-19T15:58:40.561Z,165.05
2023-02-19T16:01:13.522Z,149.77
2023-02-19T16:03:41.706Z,155.48
2023-02-19T16:06:15.006Z,154.23
2023-02-19T16:08:49.020Z,152.27
2023-02-19T16:11:22.414Z,162.07
2023-02-19T16:13:51.033Z,162.05
2023-02-19T16:16:29.946Z,159.45
2023-02-19T16:18:57.788Z,153.30
2023-02-19T16:21:26.938Z,155.35
2023-02-19T16:24:03.729Z,159.35
2023-02-19T16:26:42.617Z,163.00
2023-02-19T16:29:36.232Z,172.77
2023-02-19T16:32:06.938Z,173.13
2023-02-19T16:34:41.440Z,176.63
2023-02-19T16:37:38.776Z,179.02
2023-02-19T16:40:09.206Z,193.15
2023-02-19T16:42:49.671Z,203.75
2023-02-19T16:45:18.127Z,202.85
2023-02-19T16:47:48.512Z,215.07
2023-02-19T16:50:18.641Z,198.20
2023-02-19T16:52:55.129Z,200.40
2023-02-19T16:55:23.129Z,211.32
2023-02-19T16:57:50.853Z,212.35
2023-02-19T17:00:21.263Z,207.85
2023-02-19T17:02:51.446Z,225.38
2023-02-19T17:05:20.217Z,225.95
2023-02-19T17:07:48.543Z,216.02
2023-02-19T17:10:23.058Z,215.55
2023-02-19T17:12:51.423Z,212.02
2023-02-19T17:15:19.247Z,215.38
2023-02-19T17:17:46.821Z,200.75
2023-02-19T17:20:27.667Z,213.60
2023-02-19T17:22:55.644Z,218.77
2023-02-19T17:25:23.398Z,215.18
2023-02-19T17:27:50.794Z,211.88
2023-02-19T17:30:25.522Z,206.18
2023-02-19T17:32:53.066Z,225.80
2023-02-19T17:35:20.723Z,212.65
2023-02-19T17:37:48.114Z,218.73
2023-02-19T17:40:33.433Z,219.20
2023-02-19T17:43:02.045Z,215.27
2023-02-19T17:45:29.540Z,228.25
2023-02-19T17:47:56.999Z,217.52
2023-02-19T17:50:30.497Z,224.13
2023-02-19T17:52:58.577Z,212.55
2023-02-19T17:55:26.258Z,212.23
2023-02-19T17:57:53.905Z,222.38
2023-02-19T18:00:27.323Z,222.60
2023-02-19T18:02:55.105Z,215.93
2023-02-19T18:05:23.391Z,219.50
2023-02-19T18:07:51.223Z,223.05
2023-02-19T18:10:20.260Z,220.38
2023-02-19T18:12:47.692Z,213.05
2023-02-19T18:15:18.173Z,205.60
2023-02-19T18:17:45.594Z,225.02
2023-02-19T18:20:15.917Z,214.07
2023-02-19T18:22:43.578Z,219.73
2023-02-19T18:25:11.551Z,206.13
2023-02-19T18:27:39.384Z,210.32
2023-02-19T18:30:08.001Z,203.77
2023-02-19T18:32:36.104Z,201.82
2023-02-19T18:35:04.388Z,212.10
2023-02-19T18:37:32.966Z,199.50
2023-02-19T18:40:01.370Z,209.05
2023-02-19T18:42:29.121Z,212.10
2023-02-19T18:44:56.752Z,199.25
2023-02-19T18:47:25.474Z,209.10
2023-02-19T18:49:56.442Z,198.88
2023-02-19T18:52:26.249Z,198.60
2023-02-19T18:54:55.282Z,197.80
2023-02-19T18:57:24.380Z,196.18
2023-02-19T18:59:52.061Z,207.63
2023-02-19T19:02:20.296Z,181.60
2023-02-19T19:04:52.837Z,197.57
2023-02-19T19:07:21.100Z,195.30
2023-02-19T19:09:48.677Z,187.52
2023-02-19T19:12:16.706Z,174.88
2023-02-19T19:14:45.036Z,192.93
2023-02-19T19:17:12.676Z,194.27
2023-02-19T19:19:41.220Z,180.30
2023-02-19T19:22:08.644Z,184.68
2023-02-19T19:24:36.036Z,179.15
2023-02-19T19:27:03.511Z,187.05
2023-02-19T19:29:31.161Z,171.00
2023-02-19T19:31:58.677Z,175.15
2023-02-19T19:34:26.204Z,177.43
2023-02-19T19:36:53.627Z,167.68
2023-02-19T19:39:21.029Z,176.45
2023-02-19T19:41:54.147Z,179.05
2023-02-19T19:44:21.763Z,173.57
2023-02-19T19:46:50.156Z,173.63
2023-02-19T19:49:22.055Z,162.27
2023-02-19T19:51:49.531Z,185.10
2023-02-19T19:54:16.934Z,197.80
2023-02-19T19:56:46.451Z,196.32
2023-02-19T19:59:16.065Z,169.82
2023-02-19T20:01:54.724Z,184.30
2023-02-19T20:04:23.064Z,183.25
2023-02-19T20:06:50.989Z,182.18
2023-02-19T20:09:18.915Z,184.65
2023-02-19T20:11:51.936Z,183.30
2023-02-19T20:14:20.702Z,180.85
2023-02-19T20:16:49.655Z,182.38
2023-02-19T20:19:18.246Z,177.77
2023-02-19T20:21:53.415Z,190.18
2023-02-19T20:24:26.065Z,174.15
2023-02-19T20:26:54.764Z,182.35
2023-02-19T20:29:22.153Z,177.02
2023-02-19T20:31:51.058Z,185.55
2023-02-19T20:34:18.910Z,185.95
2023-02-19T20:36:48.072Z,197.55
2023-02-19T20:39:17.011Z,196.35
2023-02-19T20:41:49.962Z,188.05
2023-02-19T20:44:18.397Z,191.82
2023-02-19T20:46:48.081Z,205.25
2023-02-19T20:49:17.614Z,198.85
2023-02-19T20:51:50.100Z,194.18
2023-02-19T20:54:18.659Z,202.30
2023-02-19T20:56:51.171Z,188.35
2023-02-19T20:59:20.997Z,179.48
2023-02-19T21:01:48.832Z,199.82
2023-02-19T21:04:18.284Z,181.98
2023-02-19T21:06:45.840Z,193.82
2023-02-19T21:09:13.487Z,183.40
2023-02-19T21:11:40.942Z,177.30
2023-02-19T21:14:09.581Z,183.77
2023-02-19T21:16:37.174Z,185.50
2023-02-19T21:19:04.637Z,179.10
2023-02-19T21:21:34.359Z,174.88
2023-02-19T21:24:02.675Z,181.30
2023-02-19T21:26:38.505Z,172.35
2023-02-19T21:29:08.129Z,183.95
2023-02-19T21:31:43.868Z,173.60
2023-02-19T21:34:13.406Z,176.02
2023-02-19T21:36:40.927Z,179.02
2023-02-19T21:39:09.847Z,187.70
2023-02-19T21:41:37.340Z,176.95
2023-02-19T21:44:04.943Z,173.48
2023-02-19T21:46:33.653Z,176.98
2023-02-19T21:49:01.765Z,179.75
2023-02-19T21:51:32.530Z,177.02
2023-02-19T21:54:00.322Z,174.38
2023-02-19T21:56:29.940Z,178.80
2023-02-19T21:58:57.770Z,180.45
2023-02-19T22:01:26.889Z,167.82
2023-02-19T22:03:54.977Z,166.80
2023-02-19T22:06:29.195Z,169.10
2023-02-19T22:08:57.347Z,173.05
2023-02-19T22:11:25.088Z,177.95
2023-02-19T22:13:52.792Z,181.68
2023-02-19T22:16:20.511Z,180.07
2023-02-19T22:18:52.906Z,197.05
2023-02-19T22:21:22.269Z,184.20
2023-02-19T22:23:51.844Z,195.82
2023-02-19T22:26:28.650Z,188.07
2023-02-19T22:28:58.016Z,194.90
2023-02-19T22:31:27.262Z,199.30
2023-02-19T22:33:56.466Z,205.45
2023-02-19T22:36:26.741Z,194.95
2023-02-19T22:38:54.620Z,207.95
2023-02-19T22:41:22.033Z,200.20
2023-02-19T22:43:50.191Z,210.23
2023-02-19T22:46:20.623Z,203.77
2023-02-19T22:48:48.316Z,204.98
2023-02-19T22:51:17.746Z,211.00
2023-02-19T22:53:50.358Z,218.77
2023-02-19T22:56:19.785Z,230.25
2023-02-19T22:58:47.186Z,217.00
2023-02-19T23:01:15.649Z,230.95
2023-02-19T23:03:57.389Z,218.95
2023-02-19T23:06:33.200Z,226.73
2023-02-19T23:09:11.098Z,217.52
2023-02-19T23:11:39.291Z,227.55
2023-02-19T23:14:07.692Z,227.80
2023-02-19T23:16:38.095Z,233.13
2023-02-19T23:19:07.037Z,231.77
2023-02-19T23:21:34.652Z,235.85
2023-02-19T23:24:02.171Z,224.55
2023-02-19T23:26:29.683Z,238.93
2023-02-19T23:28:57.391Z,221.95
2023-02-19T23:31:26.072Z,219.23
2023-02-19T23:33:55.235Z,212.90
2023-02-19T23:36:23.880Z,219.02
2023-02-19T23:38:51.504Z,237.23
2023-02-19T23:41:19.061Z,234.50
2023-02-19T23:43:46.574Z,216.73
2023-02-19T23:46:17.639Z,213.88
2023-02-19T23:48:46.168Z,220.68
2023-02-19T23:51:13.915Z,225.82
2023-02-19T23:53:41.407Z,223.95
2023-02-19T23:56:08.957Z,237.02
2023-02-19T23:58:36.409Z,233.43
